sensor_id;sensor_type;location;lat;lon;timestamp;P1;durP1;ratioP1;P2;durP2;ratioP2
74241;SDS011;62599;49.146;10.426;2023-06-22T01:29:04;12.10;;;6.13;;
74241;SDS011;62599;49.146;10.426;2023-06-22T01:31:32;11.05;;;5.97;;
74241;SDS011;62599;49.146;10.426;2023-06-22T01:34:00;13.65;;;6.90;;
74241;SDS011;62599;49.146;10.426;2023-06-22T01:36:28;11.85;;;7.35;;
74241;SDS011;62599;49.146;10.426;2023-06-22T01:38:55;13.02;;;7.00;;
74241;SDS011;62599;49.146;10.426;2023-06-22T01:41:24;11.68;;;6.60;;
74241;SDS011;62599;49.146;10.426;2023-06-22T01:43:52;15.13;;;7.25;;
74241;SDS011;62599;49.146;10.426;2023-06-22T01:46:19;15.32;;;6.20;;
74241;SDS011;62599;49.146;10.426;2023-06-22T01:48:46;12.80;;;5.47;;
74241;SDS011;62599;49.146;10.426;2023-06-22T01:51:12;11.65;;;5.80;;
74241;SDS011;62599;49.146;10.426;2023-06-22T01:53:38;14.70;;;6.18;;
74241;SDS011;62599;49.146;10.426;2023-06-22T01:56:04;10.98;;;6.63;;
74241;SDS011;62599;49.146;10.426;2023-06-22T01:58:30;9.65;;;6.10;;
74241;SDS011;62599;49.146;10.426;2023-06-22T02:00:58;14.18;;;6.90;;
74241;SDS011;62599;49.146;10.426;2023-06-22T02:03:38;12.50;;;6.07;;
74241;SDS011;62599;49.146;10.426;2023-06-22T02:06:10;16.73;;;6.63;;
74241;SDS011;62599;49.146;10.426;2023-06-22T02:08:43;13.63;;;6.70;;
74241;SDS011;62599;49.146;10.426;2023-06-22T02:11:12;14.27;;;7.88;;
74241;SDS011;62599;49.146;10.426;2023-06-22T02:13:40;12.38;;;6.75;;
74241;SDS011;62599;49.146;10.426;2023-06-22T02:16:08;15.73;;;7.88;;
74241;SDS011;62599;49.146;10.426;2023-06-22T02:18:38;11.85;;;7.05;;
74241;SDS011;62599;49.146;10.426;2023-06-22T02:21:05;11.57;;;6.78;;
74241;SDS011;62599;49.146;10.426;2023-06-22T02:23:30;11.43;;;6.72;;
74241;SDS011;62599;49.146;10.426;2023-06-22T02:25:58;11.30;;;6.93;;
74241;SDS011;62599;49.146;10.426;2023-06-22T02:28:23;16.00;;;7.82;;
74241;SDS011;62599;49.146;10.426;2023-06-22T02:30:48;15.45;;;8.63;;
74241;SDS011;62599;49.146;10.426;2023-06-22T02:33:14;13.63;;;7.63;;
74241;SDS011;62599;49.146;10.426;2023-06-22T02:35:39;15.88;;;7.43;;
74241;SDS011;62599;49.146;10.426;2023-06-22T02:38:04;15.75;;;8.73;;
74241;SDS011;62599;49.146;10.426;2023-06-22T02:40:30;13.95;;;6.72;;
74241;SDS011;62599;49.146;10.426;2023-06-22T02:42:56;11.93;;;7.07;;
74241;SDS011;62599;49.146;10.426;2023-06-22T02:45:27;11.73;;;6.43;;
74241;SDS011;62599;49.146;10.426;2023-06-22T02:47:52;15.55;;;7.28;;
74241;SDS011;62599;49.146;10.426;2023-06-22T02:50:18;15.30;;;7.40;;
74241;SDS011;62599;49.146;10.426;2023-06-22T02:52:43;12.13;;;6.43;;
74241;SDS011;62599;49.146;10.426;2023-06-22T02:55:09;14.93;;;6.05;;
74241;SDS011;62599;49.146;10.426;2023-06-22T02:57:34;12.53;;;7.60;;
74241;SDS011;62599;49.146;10.426;2023-06-22T02:59:59;9.87;;;6.17;;
74241;SDS011;62599;49.146;10.426;2023-06-22T03:05:37;12.60;;;6.15;;
74241;SDS011;62599;49.146;10.426;2023-06-22T03:08:02;12.70;;;6.80;;
74241;SDS011;62599;49.146;10.426;2023-06-22T03:10:28;13.65;;;6.18;;
74241;SDS011;62599;49.146;10.426;2023-06-22T03:12:54;13.48;;;7.10;;
74241;SDS011;62599;49.146;10.426;2023-06-22T03:15:19;10.30;;;6.65;;
74241;SDS011;62599;49.146;10.426;2023-06-22T03:17:45;14.88;;;6.28;;
74241;SDS011;62599;49.146;10.426;2023-06-22T03:20:11;14.85;;;7.07;;
74241;SDS011;62599;49.146;10.426;2023-06-22T03:22:37;15.40;;;6.75;;
74241;SDS011;62599;49.146;10.426;2023-06-22T03:25:04;12.52;;;6.90;;
74241;SDS011;62599;49.146;10.426;2023-06-22T03:27:29;11.25;;;6.68;;
74241;SDS011;62599;49.146;10.426;2023-06-22T03:29:56;12.90;;;6.60;;
74241;SDS011;62599;49.146;10.426;2023-06-22T03:32:22;15.00;;;7.68;;
74241;SDS011;62599;49.146;10.426;2023-06-22T03:34:47;15.03;;;7.47;;
74241;SDS011;62599;49.146;10.426;2023-06-22T03:37:13;11.40;;;6.63;;
74241;SDS011;62599;49.146;10.426;2023-06-22T03:39:40;12.85;;;6.38;;
74241;SDS011;62599;49.146;10.426;2023-06-22T03:42:06;15.13;;;7.95;;
74241;SDS011;62599;49.146;10.426;2023-06-22T03:44:31;12.82;;;6.53;;
74241;SDS011;62599;49.146;10.426;2023-06-22T03:46:56;14.23;;;7.10;;
74241;SDS011;62599;49.146;10.426;2023-06-22T03:49:22;15.67;;;8.03;;
74241;SDS011;62599;49.146;10.426;2023-06-22T03:51:47;14.60;;;7.27;;
74241;SDS011;62599;49.146;10.426;2023-06-22T03:54:13;14.70;;;6.80;;
74241;SDS011;62599;49.146;10.426;2023-06-22T03:56:38;14.15;;;6.47;;
74241;SDS011;62599;49.146;10.426;2023-06-22T03:59:03;15.18;;;7.22;;
74241;SDS011;62599;49.146;10.426;2023-06-22T04:01:29;13.32;;;8.10;;
74241;SDS011;62599;49.146;10.426;2023-06-22T04:03:54;13.90;;;7.40;;
74241;SDS011;62599;49.146;10.426;2023-06-22T04:06:19;11.73;;;7.47;;
74241;SDS011;62599;49.146;10.426;2023-06-22T04:08:45;14.00;;;7.47;;
74241;SDS011;62599;49.146;10.426;2023-06-22T04:11:15;15.38;;;8.43;;
74241;SDS011;62599;49.146;10.426;2023-06-22T04:13:41;13.65;;;7.53;;
74241;SDS011;62599;49.146;10.426;2023-06-22T04:16:07;13.60;;;7.97;;
74241;SDS011;62599;49.146;10.426;2023-06-22T04:18:35;14.38;;;8.13;;
74241;SDS011;62599;49.146;10.426;2023-06-22T04:21:03;13.32;;;7.63;;
74241;SDS011;62599;49.146;10.426;2023-06-22T04:23:28;13.50;;;7.57;;
74241;SDS011;62599;49.146;10.426;2023-06-22T04:25:54;15.60;;;7.47;;
74241;SDS011;62599;49.146;10.426;2023-06-22T04:28:21;11.48;;;7.80;;
74241;SDS011;62599;49.146;10.426;2023-06-22T04:30:47;14.05;;;7.10;;
74241;SDS011;62599;49.146;10.426;2023-06-22T04:33:13;15.55;;;7.88;;
74241;SDS011;62599;49.146;10.426;2023-06-22T04:35:39;13.00;;;6.97;;
74241;SDS011;62599;49.146;10.426;2023-06-22T04:38:08;17.00;;;8.95;;
74241;SDS011;62599;49.146;10.426;2023-06-22T04:40:33;12.30;;;7.93;;
74241;SDS011;62599;49.146;10.426;2023-06-22T04:42:59;15.80;;;8.40;;
74241;SDS011;62599;49.146;10.426;2023-06-22T04:45:27;15.52;;;8.55;;
74241;SDS011;62599;49.146;10.426;2023-06-22T04:47:54;14.30;;;7.72;;
74241;SDS011;62599;49.146;10.426;2023-06-22T04:50:20;17.17;;;7.95;;
74241;SDS011;62599;49.146;10.426;2023-06-22T04:52:48;13.23;;;7.55;;
74241;SDS011;62599;49.146;10.426;2023-06-22T04:55:15;12.35;;;7.43;;
74241;SDS011;62599;49.146;10.426;2023-06-22T04:57:48;12.98;;;7.93;;
74241;SDS011;62599;49.146;10.426;2023-06-22T05:00:23;15.18;;;7.93;;
74241;SDS011;62599;49.146;10.426;2023-06-22T05:02:48;13.15;;;8.25;;
74241;SDS011;62599;49.146;10.426;2023-06-22T05:05:15;17.10;;;8.32;;
74241;SDS011;62599;49.146;10.426;2023-06-22T05:07:44;14.38;;;7.85;;
74241;SDS011;62599;49.146;10.426;2023-06-22T05:10:13;13.40;;;8.30;;
74241;SDS011;62599;49.146;10.426;2023-06-22T05:12:39;15.57;;;8.43;;
74241;SDS011;62599;49.146;10.426;2023-06-22T05:15:06;10.88;;;7.38;;
74241;SDS011;62599;49.146;10.426;2023-06-22T05:17:32;11.25;;;8.15;;
74241;SDS011;62599;49.146;10.426;2023-06-22T05:19:57;24.42;;;8.57;;
74241;SDS011;62599;49.146;10.426;2023-06-22T05:22:23;11.55;;;7.32;;
74241;SDS011;62599;49.146;10.426;2023-06-22T05:24:48;12.50;;;7.40;;
74241;SDS011;62599;49.146;10.426;2023-06-22T05:27:14;17.90;;;7.43;;
74241;SDS011;62599;49.146;10.426;2023-06-22T05:29:42;13.05;;;7.53;;
74241;SDS011;62599;49.146;10.426;2023-06-22T05:32:08;14.73;;;7.22;;
74241;SDS011;62599;49.146;10.426;2023-06-22T05:34:34;12.43;;;7.30;;
74241;SDS011;62599;49.146;10.426;2023-06-22T05:36:59;10.93;;;6.95;;
74241;SDS011;62599;49.146;10.426;2023-06-22T05:39:25;10.63;;;7.03;;
74241;SDS011;62599;49.146;10.426;2023-06-22T05:41:51;12.18;;;7.00;;
74241;SDS011;62599;49.146;10.426;2023-06-22T05:44:17;12.43;;;6.45;;
74241;SDS011;62599;49.146;10.426;2023-06-22T05:46:43;10.55;;;7.10;;
74241;SDS011;62599;49.146;10.426;2023-06-22T05:49:14;10.15;;;6.82;;
74241;SDS011;62599;49.146;10.426;2023-06-22T05:51:43;9.82;;;6.13;;
74241;SDS011;62599;49.146;10.426;2023-06-22T05:54:09;14.23;;;6.50;;
74241;SDS011;62599;49.146;10.426;2023-06-22T05:56:35;9.93;;;6.38;;
74241;SDS011;62599;49.146;10.426;2023-06-22T05:59:00;11.45;;;5.85;;
74241;SDS011;62599;49.146;10.426;2023-06-22T06:01:25;12.15;;;8.18;;
74241;SDS011;62599;49.146;10.426;2023-06-22T06:03:51;8.80;;;5.97;;
74241;SDS011;62599;49.146;10.426;2023-06-22T06:06:17;9.77;;;6.32;;
74241;SDS011;62599;49.146;10.426;2023-06-22T06:08:43;10.65;;;6.45;;
74241;SDS011;62599;49.146;10.426;2023-06-22T06:11:08;8.70;;;5.15;;
74241;SDS011;62599;49.146;10.426;2023-06-22T06:13:34;10.57;;;6.00;;
74241;SDS011;62599;49.146;10.426;2023-06-22T06:15:59;8.37;;;5.63;;
74241;SDS011;62599;49.146;10.426;2023-06-22T06:18:24;9.83;;;5.27;;
74241;SDS011;62599;49.146;10.426;2023-06-22T06:20:53;8.85;;;5.93;;
74241;SDS011;62599;49.146;10.426;2023-06-22T06:23:18;9.97;;;5.47;;
74241;SDS011;62599;49.146;10.426;2023-06-22T06:25:43;9.83;;;5.53;;
74241;SDS011;62599;49.146;10.426;2023-06-22T06:28:09;9.88;;;6.95;;
74241;SDS011;62599;49.146;10.426;2023-06-22T06:30:34;7.63;;;4.60;;
74241;SDS011;62599;49.146;10.426;2023-06-22T06:33:02;10.80;;;5.40;;
74241;SDS011;62599;49.146;10.426;2023-06-22T06:35:27;9.07;;;5.38;;
74241;SDS011;62599;49.146;10.426;2023-06-22T06:37:53;9.03;;;5.57;;
74241;SDS011;62599;49.146;10.426;2023-06-22T06:40:18;8.87;;;4.57;;
74241;SDS011;62599;49.146;10.426;2023-06-22T06:42:45;12.48;;;5.22;;
74241;SDS011;62599;49.146;10.426;2023-06-22T06:45:12;8.32;;;5.25;;
74241;SDS011;62599;49.146;10.426;2023-06-22T06:47:40;8.25;;;4.95;;
74241;SDS011;62599;49.146;10.426;2023-06-22T06:50:05;9.60;;;5.20;;
74241;SDS011;62599;49.146;10.426;2023-06-22T06:52:31;9.95;;;4.78;;
74241;SDS011;62599;49.146;10.426;2023-06-22T06:54:57;10.98;;;5.47;;
74241;SDS011;62599;49.146;10.426;2023-06-22T06:57:23;8.90;;;5.55;;
74241;SDS011;62599;49.146;10.426;2023-06-22T06:59:48;7.10;;;4.73;;
74241;SDS011;62599;49.146;10.426;2023-06-22T07:02:15;9.63;;;5.50;;
74241;SDS011;62599;49.146;10.426;2023-06-22T07:04:41;8.15;;;4.85;;
74241;SDS011;62599;49.146;10.426;2023-06-22T07:07:06;8.93;;;4.55;;
74241;SDS011;62599;49.146;10.426;2023-06-22T07:09:32;8.10;;;4.60;;
74241;SDS011;62599;49.146;10.426;2023-06-22T07:11:57;6.07;;;3.58;;
74241;SDS011;62599;49.146;10.426;2023-06-22T07:14:23;7.50;;;4.40;;
74241;SDS011;62599;49.146;10.426;2023-06-22T07:16:48;6.55;;;4.20;;
74241;SDS011;62599;49.146;10.426;2023-06-22T07:19:14;7.05;;;4.22;;
74241;SDS011;62599;49.146;10.426;2023-06-22T07:21:39;6.22;;;4.28;;
74241;SDS011;62599;49.146;10.426;2023-06-22T07:24:05;5.73;;;4.17;;
74241;SDS011;62599;49.146;10.426;2023-06-22T07:26:31;7.45;;;3.88;;
74241;SDS011;62599;49.146;10.426;2023-06-22T07:29:00;10.70;;;3.70;;
74241;SDS011;62599;49.146;10.426;2023-06-22T07:31:28;5.07;;;3.67;;
74241;SDS011;62599;49.146;10.426;2023-06-22T07:33:53;8.63;;;4.28;;
74241;SDS011;62599;49.146;10.426;2023-06-22T07:36:19;6.63;;;4.17;;
74241;SDS011;62599;49.146;10.426;2023-06-22T07:38:44;5.37;;;3.97;;
74241;SDS011;62599;49.146;10.426;2023-06-22T07:41:10;5.25;;;3.65;;
74241;SDS011;62599;49.146;10.426;2023-06-22T07:43:35;8.07;;;4.07;;
74241;SDS011;62599;49.146;10.426;2023-06-22T07:46:04;5.30;;;3.45;;
74241;SDS011;62599;49.146;10.426;2023-06-22T07:48:30;12.75;;;4.22;;
74241;SDS011;62599;49.146;10.426;2023-06-22T07:50:56;6.50;;;3.97;;
74241;SDS011;62599;49.146;10.426;2023-06-22T07:53:21;7.80;;;4.10;;
74241;SDS011;62599;49.146;10.426;2023-06-22T07:55:48;5.65;;;3.70;;
74241;SDS011;62599;49.146;10.426;2023-06-22T07:58:13;4.78;;;3.42;;
74241;SDS011;62599;49.146;10.426;2023-06-22T08:00:39;5.75;;;3.75;;
74241;SDS011;62599;49.146;10.426;2023-06-22T08:03:04;7.78;;;3.70;;
74241;SDS011;62599;49.146;10.426;2023-06-22T08:05:30;6.03;;;2.88;;
74241;SDS011;62599;49.146;10.426;2023-06-22T08:07:56;7.60;;;3.42;;
74241;SDS011;62599;49.146;10.426;2023-06-22T08:10:21;6.93;;;3.92;;
74241;SDS011;62599;49.146;10.426;2023-06-22T08:12:47;5.38;;;3.40;;
74241;SDS011;62599;49.146;10.426;2023-06-22T08:15:12;5.28;;;3.55;;
74241;SDS011;62599;49.146;10.426;2023-06-22T08:17:38;5.05;;;2.92;;
74241;SDS011;62599;49.146;10.426;2023-06-22T08:20:04;4.50;;;2.75;;
74241;SDS011;62599;49.146;10.426;2023-06-22T08:22:40;7.00;;;3.22;;
74241;SDS011;62599;49.146;10.426;2023-06-22T08:25:06;7.90;;;2.90;;
74241;SDS011;62599;49.146;10.426;2023-06-22T08:27:33;7.68;;;2.80;;
74241;SDS011;62599;49.146;10.426;2023-06-22T08:29:58;8.25;;;2.78;;
74241;SDS011;62599;49.146;10.426;2023-06-22T08:32:25;9.10;;;2.92;;
74241;SDS011;62599;49.146;10.426;2023-06-22T08:34:54;6.40;;;2.97;;
74241;SDS011;62599;49.146;10.426;2023-06-22T08:37:20;4.07;;;2.42;;
74241;SDS011;62599;49.146;10.426;2023-06-22T08:39:55;4.78;;;2.75;;
74241;SDS011;62599;49.146;10.426;2023-06-22T08:42:21;4.38;;;3.17;;
74241;SDS011;62599;49.146;10.426;2023-06-22T08:44:48;7.15;;;2.70;;
74241;SDS011;62599;49.146;10.426;2023-06-22T08:47:13;4.33;;;2.60;;
74241;SDS011;62599;49.146;10.426;2023-06-22T08:49:39;4.53;;;3.23;;
74241;SDS011;62599;49.146;10.426;2023-06-22T08:52:04;5.07;;;2.37;;
74241;SDS011;62599;49.146;10.426;2023-06-22T08:54:30;5.93;;;3.22;;
74241;SDS011;62599;49.146;10.426;2023-06-22T08:56:58;6.53;;;2.45;;
74241;SDS011;62599;49.146;10.426;2023-06-22T08:59:23;5.63;;;3.10;;
74241;SDS011;62599;49.146;10.426;2023-06-22T09:01:48;4.30;;;2.50;;
74241;SDS011;62599;49.146;10.426;2023-06-22T09:04:14;5.60;;;2.77;;
74241;SDS011;62599;49.146;10.426;2023-06-22T09:06:40;4.90;;;2.83;;
74241;SDS011;62599;49.146;10.426;2023-06-22T09:09:10;9.27;;;3.15;;
74241;SDS011;62599;49.146;10.426;2023-06-22T09:11:35;6.20;;;2.67;;
74241;SDS011;62599;49.146;10.426;2023-06-22T09:14:01;4.10;;;2.50;;
74241;SDS011;62599;49.146;10.426;2023-06-22T09:16:26;3.30;;;2.67;;
74241;SDS011;62599;49.146;10.426;2023-06-22T09:18:52;7.75;;;3.78;;
74241;SDS011;62599;49.146;10.426;2023-06-22T09:21:17;4.82;;;3.03;;
74241;SDS011;62599;49.146;10.426;2023-06-22T09:23:43;4.88;;;3.10;;
74241;SDS011;62599;49.146;10.426;2023-06-22T09:26:15;9.77;;;3.20;;
74241;SDS011;62599;49.146;10.426;2023-06-22T09:28:40;9.80;;;3.05;;
74241;SDS011;62599;49.146;10.426;2023-06-22T09:31:06;9.52;;;2.80;;
74241;SDS011;62599;49.146;10.426;2023-06-22T09:33:32;4.15;;;2.70;;
74241;SDS011;62599;49.146;10.426;2023-06-22T09:35:57;9.95;;;2.92;;
74241;SDS011;62599;49.146;10.426;2023-06-22T09:38:23;6.15;;;2.95;;
74241;SDS011;62599;49.146;10.426;2023-06-22T09:40:48;7.05;;;3.60;;
74241;SDS011;62599;49.146;10.426;2023-06-22T09:43:13;6.80;;;3.27;;
74241;SDS011;62599;49.146;10.426;2023-06-22T09:45:39;6.82;;;2.90;;
74241;SDS011;62599;49.146;10.426;2023-06-22T09:48:04;18.98;;;2.72;;
74241;SDS011;62599;49.146;10.426;2023-06-22T09:50:30;5.75;;;2.65;;
74241;SDS011;62599;49.146;10.426;2023-06-22T09:52:56;5.70;;;2.45;;
74241;SDS011;62599;49.146;10.426;2023-06-22T09:55:21;8.32;;;2.65;;
74241;SDS011;62599;49.146;10.426;2023-06-22T09:57:47;7.85;;;2.67;;
74241;SDS011;62599;49.146;10.426;2023-06-22T10:00:13;8.18;;;2.75;;
74241;SDS011;62599;49.146;10.426;2023-06-22T10:02:43;6.28;;;2.85;;
74241;SDS011;62599;49.146;10.426;2023-06-22T10:05:09;11.65;;;2.78;;
74241;SDS011;62599;49.146;10.426;2023-06-22T10:07:34;7.47;;;2.93;;
74241;SDS011;62599;49.146;10.426;2023-06-22T10:10:04;6.22;;;3.05;;
74241;SDS011;62599;49.146;10.426;2023-06-22T10:12:31;5.95;;;3.13;;
74241;SDS011;62599;49.146;10.426;2023-06-22T10:14:56;7.10;;;2.83;;
74241;SDS011;62599;49.146;10.426;2023-06-22T10:17:21;5.03;;;2.73;;
74241;SDS011;62599;49.146;10.426;2023-06-22T10:19:47;7.13;;;2.25;;
74241;SDS011;62599;49.146;10.426;2023-06-22T10:22:12;6.47;;;2.63;;
74241;SDS011;62599;49.146;10.426;2023-06-22T10:24:37;4.45;;;2.58;;
74241;SDS011;62599;49.146;10.426;2023-06-22T10:27:09;6.22;;;2.55;;
74241;SDS011;62599;49.146;10.426;2023-06-22T10:29:35;4.40;;;2.92;;
74241;SDS011;62599;49.146;10.426;2023-06-22T10:32:00;6.75;;;2.65;;
74241;SDS011;62599;49.146;10.426;2023-06-22T10:34:26;10.25;;;3.10;;
74241;SDS011;62599;49.146;10.426;2023-06-22T10:36:51;4.73;;;2.63;;
74241;SDS011;62599;49.146;10.426;2023-06-22T10:39:16;5.90;;;3.00;;
74241;SDS011;62599;49.146;10.426;2023-06-22T10:41:42;12.10;;;3.42;;
74241;SDS011;62599;49.146;10.426;2023-06-22T10:44:08;6.65;;;3.30;;
74241;SDS011;62599;49.146;10.426;2023-06-22T10:46:33;6.28;;;3.45;;
74241;SDS011;62599;49.146;10.426;2023-06-22T10:48:58;11.20;;;2.97;;
74241;SDS011;62599;49.146;10.426;2023-06-22T10:51:24;6.60;;;3.80;;
74241;SDS011;62599;49.146;10.426;2023-06-22T10:53:50;14.57;;;3.30;;
74241;SDS011;62599;49.146;10.426;2023-06-22T10:56:16;8.20;;;2.42;;
74241;SDS011;62599;49.146;10.426;2023-06-22T10:58:43;14.65;;;2.80;;
74241;SDS011;62599;49.146;10.426;2023-06-22T11:01:09;9.30;;;3.15;;
74241;SDS011;62599;49.146;10.426;2023-06-22T11:03:34;12.23;;;2.73;;
74241;SDS011;62599;49.146;10.426;2023-06-22T11:06:00;11.40;;;2.83;;
74241;SDS011;62599;49.146;10.426;2023-06-22T11:08:25;9.87;;;2.87;;
74241;SDS011;62599;49.146;10.426;2023-06-22T11:10:51;11.03;;;3.10;;
74241;SDS011;62599;49.146;10.426;2023-06-22T11:13:17;11.23;;;3.60;;
74241;SDS011;62599;49.146;10.426;2023-06-22T11:15:42;6.60;;;2.78;;
74241;SDS011;62599;49.146;10.426;2023-06-22T11:18:08;8.15;;;3.58;;
74241;SDS011;62599;49.146;10.426;2023-06-22T11:20:33;7.07;;;3.63;;
74241;SDS011;62599;49.146;10.426;2023-06-22T11:23:07;9.45;;;3.40;;
74241;SDS011;62599;49.146;10.426;2023-06-22T11:25:32;8.07;;;3.03;;
74241;SDS011;62599;49.146;10.426;2023-06-22T11:28:01;9.60;;;3.38;;
74241;SDS011;62599;49.146;10.426;2023-06-22T11:30:27;9.20;;;4.60;;
74241;SDS011;62599;49.146;10.426;2023-06-22T11:32:52;10.15;;;3.80;;
74241;SDS011;62599;49.146;10.426;2023-06-22T11:35:18;8.95;;;3.00;;
74241;SDS011;62599;49.146;10.426;2023-06-22T11:37:43;10.73;;;3.22;;
74241;SDS011;62599;49.146;10.426;2023-06-22T11:40:09;12.00;;;3.25;;
74241;SDS011;62599;49.146;10.426;2023-06-22T11:42:35;6.95;;;3.42;;
74241;SDS011;62599;49.146;10.426;2023-06-22T11:45:00;7.43;;;3.25;;
74241;SDS011;62599;49.146;10.426;2023-06-22T11:47:26;7.95;;;3.35;;
74241;SDS011;62599;49.146;10.426;2023-06-22T11:49:52;11.00;;;2.78;;
74241;SDS011;62599;49.146;10.426;2023-06-22T11:52:17;6.55;;;3.65;;
74241;SDS011;62599;49.146;10.426;2023-06-22T11:54:44;11.18;;;3.72;;
74241;SDS011;62599;49.146;10.426;2023-06-22T11:57:10;12.07;;;3.65;;
74241;SDS011;62599;49.146;10.426;2023-06-22T11:59:36;9.75;;;3.33;;
74241;SDS011;62599;49.146;10.426;2023-06-22T12:02:01;8.63;;;3.57;;
74241;SDS011;62599;49.146;10.426;2023-06-22T12:04:27;8.45;;;3.72;;
74241;SDS011;62599;49.146;10.426;2023-06-22T12:06:52;14.70;;;3.75;;
74241;SDS011;62599;49.146;10.426;2023-06-22T12:09:17;6.70;;;2.73;;
74241;SDS011;62599;49.146;10.426;2023-06-22T12:11:43;9.07;;;3.10;;
74241;SDS011;62599;49.146;10.426;2023-06-22T12:14:08;8.33;;;3.33;;
74241;SDS011;62599;49.146;10.426;2023-06-22T12:16:34;10.15;;;3.85;;
74241;SDS011;62599;49.146;10.426;2023-06-22T12:19:00;8.60;;;3.00;;
74241;SDS011;62599;49.146;10.426;2023-06-22T12:21:25;9.32;;;4.25;;
74241;SDS011;62599;49.146;10.426;2023-06-22T12:23:51;8.98;;;3.42;;
74241;SDS011;62599;49.146;10.426;2023-06-22T12:26:16;7.90;;;3.63;;
74241;SDS011;62599;49.146;10.426;2023-06-22T12:28:42;13.80;;;4.18;;
74241;SDS011;62599;49.146;10.426;2023-06-22T12:31:07;8.85;;;3.33;;
74241;SDS011;62599;49.146;10.426;2023-06-22T12:33:32;14.07;;;3.63;;
74241;SDS011;62599;49.146;10.426;2023-06-22T12:35:58;7.55;;;3.78;;
74241;SDS011;62599;49.146;10.426;2023-06-22T12:38:23;9.80;;;4.57;;
74241;SDS011;62599;49.146;10.426;2023-06-22T12:40:51;11.63;;;4.00;;
74241;SDS011;62599;49.146;10.426;2023-06-22T12:43:17;11.32;;;2.78;;
74241;SDS011;62599;49.146;10.426;2023-06-22T12:45:43;8.15;;;3.03;;
74241;SDS011;62599;49.146;10.426;2023-06-22T12:48:11;9.93;;;3.03;;
74241;SDS011;62599;49.146;10.426;2023-06-22T12:50:37;10.85;;;3.50;;
74241;SDS011;62599;49.146;10.426;2023-06-22T12:53:06;10.80;;;4.03;;
74241;SDS011;62599;49.146;10.426;2023-06-22T12:55:31;13.10;;;4.07;;
74241;SDS011;62599;49.146;10.426;2023-06-22T12:57:57;12.48;;;3.25;;
74241;SDS011;62599;49.146;10.426;2023-06-22T13:00:23;15.00;;;3.78;;
74241;SDS011;62599;49.146;10.426;2023-06-22T13:02:48;9.77;;;3.13;;
74241;SDS011;62599;49.146;10.426;2023-06-22T13:05:13;8.25;;;3.28;;
74241;SDS011;62599;49.146;10.426;2023-06-22T13:07:39;9.63;;;3.22;;
74241;SDS011;62599;49.146;10.426;2023-06-22T13:10:04;6.43;;;3.22;;
74241;SDS011;62599;49.146;10.426;2023-06-22T13:12:30;9.38;;;3.90;;
74241;SDS011;62599;49.146;10.426;2023-06-22T13:14:55;10.60;;;3.42;;
74241;SDS011;62599;49.146;10.426;2023-06-22T13:17:21;13.30;;;3.35;;
74241;SDS011;62599;49.146;10.426;2023-06-22T13:19:46;13.30;;;4.05;;
74241;SDS011;62599;49.146;10.426;2023-06-22T13:25:31;8.90;;;3.95;;
74241;SDS011;62599;49.146;10.426;2023-06-22T13:27:59;11.32;;;3.85;;
74241;SDS011;62599;49.146;10.426;2023-06-22T13:30:25;11.63;;;3.10;;
74241;SDS011;62599;49.146;10.426;2023-06-22T13:32:50;4.82;;;2.45;;
74241;SDS011;62599;49.146;10.426;2023-06-22T13:35:15;9.17;;;3.80;;
74241;SDS011;62599;49.146;10.426;2023-06-22T13:37:41;6.97;;;2.70;;
74241;SDS011;62599;49.146;10.426;2023-06-22T13:40:06;5.78;;;3.13;;
74241;SDS011;62599;49.146;10.426;2023-06-22T13:42:32;11.95;;;3.20;;
74241;SDS011;62599;49.146;10.426;2023-06-22T13:44:58;6.78;;;3.55;;
74241;SDS011;62599;49.146;10.426;2023-06-22T13:47:23;6.63;;;3.50;;
74241;SDS011;62599;49.146;10.426;2023-06-22T13:49:49;8.93;;;3.45;;
74241;SDS011;62599;49.146;10.426;2023-06-22T13:52:14;7.90;;;3.63;;
74241;SDS011;62599;49.146;10.426;2023-06-22T13:54:40;15.73;;;3.67;;
74241;SDS011;62599;49.146;10.426;2023-06-22T13:57:05;11.27;;;3.20;;
74241;SDS011;62599;49.146;10.426;2023-06-22T13:59:31;8.32;;;3.00;;
74241;SDS011;62599;49.146;10.426;2023-06-22T14:01:56;6.87;;;3.17;;
74241;SDS011;62599;49.146;10.426;2023-06-22T14:04:25;11.27;;;4.03;;
74241;SDS011;62599;49.146;10.426;2023-06-22T14:06:50;8.00;;;3.25;;
74241;SDS011;62599;49.146;10.426;2023-06-22T14:09:18;7.10;;;2.97;;
74241;SDS011;62599;49.146;10.426;2023-06-22T14:11:43;6.47;;;3.55;;
74241;SDS011;62599;49.146;10.426;2023-06-22T14:14:09;4.38;;;3.00;;
74241;SDS011;62599;49.146;10.426;2023-06-22T14:16:34;8.90;;;2.90;;
74241;SDS011;62599;49.146;10.426;2023-06-22T14:19:00;6.67;;;3.10;;
74241;SDS011;62599;49.146;10.426;2023-06-22T14:21:25;10.87;;;3.43;;
74241;SDS011;62599;49.146;10.426;2023-06-22T14:23:51;8.00;;;3.55;;
74241;SDS011;62599;49.146;10.426;2023-06-22T14:26:25;10.38;;;4.53;;
74241;SDS011;62599;49.146;10.426;2023-06-22T14:28:51;15.98;;;3.65;;
74241;SDS011;62599;49.146;10.426;2023-06-22T14:31:18;8.52;;;3.60;;
74241;SDS011;62599;49.146;10.426;2023-06-22T14:33:48;11.52;;;3.90;;
74241;SDS011;62599;49.146;10.426;2023-06-22T14:36:14;11.85;;;4.25;;
74241;SDS011;62599;49.146;10.426;2023-06-22T14:38:40;7.82;;;3.50;;
74241;SDS011;62599;49.146;10.426;2023-06-22T14:41:06;8.40;;;3.72;;
74241;SDS011;62599;49.146;10.426;2023-06-22T14:43:31;10.40;;;3.55;;
74241;SDS011;62599;49.146;10.426;2023-06-22T14:45:57;8.23;;;3.90;;
74241;SDS011;62599;49.146;10.426;2023-06-22T14:48:22;11.17;;;3.80;;
74241;SDS011;62599;49.146;10.426;2023-06-22T14:50:48;7.70;;;3.08;;
74241;SDS011;62599;49.146;10.426;2023-06-22T14:53:14;13.57;;;4.28;;
74241;SDS011;62599;49.146;10.426;2023-06-22T14:55:39;11.18;;;3.53;;
74241;SDS011;62599;49.146;10.426;2023-06-22T14:58:05;10.70;;;3.78;;
74241;SDS011;62599;49.146;10.426;2023-06-22T15:00:31;15.30;;;3.45;;
74241;SDS011;62599;49.146;10.426;2023-06-22T15:02:56;15.57;;;4.05;;
74241;SDS011;62599;49.146;10.426;2023-06-22T15:05:22;10.18;;;3.58;;
74241;SDS011;62599;49.146;10.426;2023-06-22T15:07:49;6.72;;;3.17;;
74241;SDS011;62599;49.146;10.426;2023-06-22T15:10:36;18.30;;;3.90;;
74241;SDS011;62599;49.146;10.426;2023-06-22T15:13:49;10.23;;;3.63;;
74241;SDS011;62599;49.146;10.426;2023-06-22T15:19:54;8.70;;;3.25;;
74241;SDS011;62599;49.146;10.426;2023-06-22T15:22:20;8.77;;;3.88;;
74241;SDS011;62599;49.146;10.426;2023-06-22T15:24:46;8.32;;;3.83;;
74241;SDS011;62599;49.146;10.426;2023-06-22T15:27:13;7.00;;;3.90;;
74241;SDS011;62599;49.146;10.426;2023-06-22T15:29:39;10.88;;;3.75;;
74241;SDS011;62599;49.146;10.426;2023-06-22T15:32:05;8.93;;;3.35;;
74241;SDS011;62599;49.146;10.426;2023-06-22T15:34:33;9.70;;;4.68;;
74241;SDS011;62599;49.146;10.426;2023-06-22T15:36:59;13.95;;;4.50;;
74241;SDS011;62599;49.146;10.426;2023-06-22T15:39:25;12.75;;;4.25;;
74241;SDS011;62599;49.146;10.426;2023-06-22T15:41:51;8.68;;;3.97;;
74241;SDS011;62599;49.146;10.426;2023-06-22T15:44:19;9.77;;;4.03;;
74241;SDS011;62599;49.146;10.426;2023-06-22T15:46:45;10.68;;;5.07;;
74241;SDS011;62599;49.146;10.426;2023-06-22T15:49:10;13.33;;;3.67;;
74241;SDS011;62599;49.146;10.426;2023-06-22T15:51:39;8.93;;;3.70;;
74241;SDS011;62599;49.146;10.426;2023-06-22T15:54:04;14.18;;;4.22;;
74241;SDS011;62599;49.146;10.426;2023-06-22T15:56:30;12.40;;;4.40;;
74241;SDS011;62599;49.146;10.426;2023-06-22T15:58:55;7.57;;;3.63;;
74241;SDS011;62599;49.146;10.426;2023-06-22T16:01:21;13.30;;;3.97;;